createdAt,value
2023-03-08T00:01:22.937Z,20.20
2023-03-08T00:03:55.736Z,21.00
2023-03-08T00:06:25.702Z,20.70
2023-03-08T00:08:58.585Z,20.30
2023-03-08T00:11:27.411Z,18.40
2023-03-08T00:13:55.688Z,19.00
2023-03-08T00:16:24.536Z,19.70
2023-03-08T00:18:52.723Z,18.50
2023-03-08T00:21:21.740Z,18.80
2023-03-08T00:23:54.647Z,18.50
2023-03-08T00:26:23.295Z,19.70
2023-03-08T00:28:52.994Z,19.80
2023-03-08T00:31:21.698Z,20.20
2023-03-08T00:33:54.043Z,18.70
2023-03-08T00:36:22.500Z,21.30
2023-03-08T00:38:51.635Z,24.70
2023-03-08T00:41:20.053Z,22.60
2023-03-08T00:43:49.288Z,24.20
2023-03-08T00:46:17.433Z,23.60
2023-03-08T00:48:46.546Z,23.80
2023-03-08T00:51:19.145Z,24.40
2023-03-08T00:53:48.791Z,23.70
2023-03-08T00:56:17.492Z,23.00
2023-03-08T00:58:46.436Z,24.20
2023-03-08T01:01:18.139Z,23.90
2023-03-08T01:03:48.501Z,23.90
2023-03-08T01:06:17.379Z,23.40
2023-03-08T01:08:45.838Z,24.60
2023-03-08T01:11:26.936Z,25.20
2023-03-08T01:13:55.210Z,24.30
2023-03-08T01:16:27.132Z,24.00
2023-03-08T01:18:56.014Z,23.40
2023-03-08T01:21:25.594Z,21.30
2023-03-08T01:23:53.637Z,20.40
2023-03-08T01:26:26.738Z,21.90
2023-03-08T01:28:57.761Z,21.00
2023-03-08T01:31:29.760Z,21.50
2023-03-08T01:33:58.939Z,20.40
2023-03-08T01:36:28.670Z,20.10
2023-03-08T01:39:01.545Z,20.40
2023-03-08T01:41:32.188Z,19.90
2023-03-08T01:44:01.099Z,19.80
2023-03-08T01:46:33.245Z,20.30
2023-03-08T01:49:31.915Z,20.70
2023-03-08T01:52:07.082Z,19.90
2023-03-08T01:54:55.442Z,19.80
2023-03-08T01:57:33.243Z,20.70
2023-03-08T02:00:14.426Z,20.60
2023-03-08T02:02:49.623Z,20.50
2023-03-08T02:05:20.221Z,21.40
2023-03-08T02:07:51.297Z,22.10
2023-03-08T02:10:20.366Z,21.30
2023-03-08T02:12:48.982Z,22.20
2023-03-08T02:15:21.022Z,22.60
2023-03-08T02:17:53.078Z,22.70
2023-03-08T02:20:22.279Z,22.40
2023-03-08T02:22:53.304Z,21.60
2023-03-08T02:25:25.164Z,23.10
2023-03-08T02:27:54.815Z,21.40
2023-03-08T02:30:26.507Z,19.70
2023-03-08T02:32:56.160Z,18.00
2023-03-08T02:35:24.150Z,19.00
2023-03-08T02:37:52.500Z,16.50
2023-03-08T02:40:21.535Z,17.30
2023-03-08T02:42:53.292Z,16.70
2023-03-08T02:45:23.404Z,17.30
2023-03-08T02:47:52.004Z,18.10
2023-03-08T02:50:20.437Z,17.80
2023-03-08T02:52:48.915Z,16.50
2023-03-08T02:55:16.913Z,17.00
2023-03-08T02:57:45.255Z,17.80
2023-03-08T03:00:15.434Z,17.20
2023-03-08T03:02:43.592Z,16.90
2023-03-08T03:05:13.109Z,18.00
2023-03-08T03:07:43.901Z,17.40
2023-03-08T03:10:16.918Z,19.90
2023-03-08T03:12:45.116Z,14.00
2023-03-08T03:15:16.566Z,15.30
2023-03-08T03:17:45.323Z,16.80
2023-03-08T03:20:14.005Z,17.40
2023-03-08T03:22:42.096Z,18.80
2023-03-08T03:25:11.729Z,18.10
2023-03-08T03:27:41.739Z,17.80
2023-03-08T03:30:11.358Z,19.50
2023-03-08T03:32:41.095Z,18.30
2023-03-08T03:35:09.909Z,18.40
2023-03-08T03:37:38.137Z,19.00
2023-03-08T03:40:07.234Z,19.30
2023-03-08T03:42:38.046Z,19.60
2023-03-08T03:45:10.612Z,20.00
2023-03-08T03:47:38.865Z,21.20
2023-03-08T03:50:09.987Z,19.90
2023-03-08T03:53:07.087Z,20.70
2023-03-08T03:55:35.141Z,20.90
2023-03-08T03:58:04.451Z,21.90
2023-03-08T04:00:32.855Z,23.00
2023-03-08T04:03:08.586Z,21.50
2023-03-08T04:05:38.354Z,21.60
2023-03-08T04:08:09.592Z,21.00
2023-03-08T04:10:38.761Z,21.50
2023-03-08T04:13:11.354Z,21.90
2023-03-08T04:15:39.785Z,21.10
2023-03-08T04:18:09.701Z,20.60
2023-03-08T04:20:38.489Z,20.00
2023-03-08T04:23:06.853Z,20.10
2023-03-08T04:25:39.220Z,19.40
2023-03-08T04:28:07.977Z,19.80
2023-03-08T04:30:36.209Z,18.40
2023-03-08T04:33:04.772Z,17.90
2023-03-08T04:35:38.785Z,17.30
2023-03-08T04:38:07.221Z,20.70
2023-03-08T04:40:55.473Z,21.00
2023-03-08T04:43:24.913Z,20.20
2023-03-08T04:45:53.097Z,21.50
2023-03-08T04:48:21.566Z,22.20
2023-03-08T04:51:01.306Z,21.30
2023-03-08T04:53:30.530Z,21.80
2023-03-08T04:56:02.615Z,23.50
2023-03-08T04:58:31.863Z,24.20
2023-03-08T05:01:00.142Z,24.70
2023-03-08T05:03:28.186Z,24.70
2023-03-08T05:05:56.214Z,25.30
2023-03-08T05:08:24.903Z,24.40
2023-03-08T05:11:00.904Z,25.50
2023-03-08T05:13:34.714Z,23.40
2023-03-08T05:16:09.983Z,22.80
2023-03-08T05:18:38.876Z,24.10
2023-03-08T05:21:12.345Z,24.50
2023-03-08T05:23:42.241Z,25.10
2023-03-08T05:26:14.256Z,24.40
2023-03-08T05:28:43.346Z,22.60
2023-03-08T05:31:18.225Z,23.80
2023-03-08T05:33:54.773Z,25.30
2023-03-08T05:36:28.708Z,22.90
2023-03-08T05:38:57.603Z,24.10
2023-03-08T05:41:32.611Z,22.60
2023-03-08T05:44:02.134Z,23.10
2023-03-08T05:46:32.559Z,21.50
2023-03-08T05:49:01.667Z,22.70
2023-03-08T05:51:31.303Z,23.40
2023-03-08T05:53:59.537Z,22.30
2023-03-08T05:56:27.922Z,22.90
2023-03-08T05:59:19.318Z,22.30
2023-03-08T06:01:48.567Z,24.00
2023-03-08T06:04:29.429Z,24.30
2023-03-08T06:06:58.085Z,23.90
2023-03-08T06:09:30.903Z,22.50
2023-03-08T06:12:00.089Z,21.80
2023-03-08T06:14:32.780Z,20.80
2023-03-08T06:17:03.014Z,16.60
2023-03-08T06:19:32.184Z,19.80
2023-03-08T06:22:03.856Z,19.80
2023-03-08T06:24:33.429Z,19.20
2023-03-08T06:27:03.463Z,19.20
2023-03-08T06:29:32.725Z,19.80
2023-03-08T06:32:02.703Z,20.30
2023-03-08T06:34:34.074Z,22.90
2023-03-08T06:37:03.280Z,21.00
2023-03-08T06:39:32.856Z,21.40
2023-03-08T06:42:03.065Z,21.50
2023-03-08T06:44:31.883Z,21.30
2023-03-08T06:47:04.206Z,19.30
2023-03-08T06:49:32.836Z,19.30
2023-03-08T06:52:01.831Z,17.60
2023-03-08T06:54:32.593Z,17.30
2023-03-08T06:57:05.714Z,17.60
2023-03-08T06:59:35.209Z,19.80
2023-03-08T07:02:03.293Z,20.40
2023-03-08T07:04:31.672Z,22.70
2023-03-08T07:06:59.911Z,18.50
2023-03-08T07:09:31.351Z,21.00
2023-03-08T07:12:01.019Z,19.70
2023-03-08T07:14:30.065Z,20.70
2023-03-08T07:16:58.763Z,18.20
2023-03-08T07:19:27.374Z,17.00
2023-03-08T07:21:56.590Z,14.70
2023-03-08T07:24:25.150Z,14.20
2023-03-08T07:26:55.368Z,16.60
2023-03-08T07:29:23.608Z,20.30
2023-03-08T07:31:51.995Z,16.20
2023-03-08T07:34:19.951Z,15.10
2023-03-08T07:36:48.313Z,17.00
2023-03-08T07:39:19.647Z,16.00
2023-03-08T07:41:47.916Z,13.90
2023-03-08T07:44:16.448Z,22.40
2023-03-08T07:46:46.862Z,28.00
2023-03-08T07:49:17.409Z,27.40
2023-03-08T07:51:45.986Z,24.70
2023-03-08T07:54:14.404Z,21.50
2023-03-08T07:56:42.700Z,20.50
2023-03-08T07:59:11.526Z,23.90
2023-03-08T08:01:43.033Z,23.90
2023-03-08T08:04:15.701Z,23.00
2023-03-08T08:06:45.300Z,22.10
2023-03-08T08:09:14.876Z,20.30
2023-03-08T08:11:43.207Z,20.50
2023-03-08T08:14:13.932Z,21.30
2023-03-08T08:16:42.372Z,21.40
2023-03-08T08:19:12.606Z,16.60
2023-03-08T08:21:41.708Z,16.50
2023-03-08T08:24:10.690Z,17.00
2023-03-08T08:26:39.977Z,15.20
2023-03-08T08:29:09.210Z,19.70
2023-03-08T08:31:37.579Z,17.40
2023-03-08T08:34:05.870Z,21.70
2023-03-08T08:36:34.877Z,17.90
2023-03-08T08:39:03.630Z,20.70
2023-03-08T08:41:32.544Z,18.00
2023-03-08T08:44:03.992Z,11.80
2023-03-08T08:46:36.865Z,11.50
2023-03-08T08:49:09.012Z,21.50
2023-03-08T08:51:37.692Z,10.70
2023-03-08T08:54:06.141Z,12.10
2023-03-08T08:56:34.697Z,10.20
2023-03-08T08:59:03.955Z,8.60
2023-03-08T09:01:34.470Z,8.00
2023-03-08T09:04:02.981Z,6.20
2023-03-08T09:06:31.342Z,4.50
2023-03-08T09:09:00.251Z,3.30
2023-03-08T09:11:29.639Z,2.80
2023-03-08T09:13:58.442Z,2.80
2023-03-08T09:16:29.712Z,2.80
2023-03-08T09:18:59.095Z,3.80
2023-03-08T09:21:34.430Z,3.50
2023-03-08T09:24:06.847Z,2.90
2023-03-08T09:26:36.162Z,3.50
2023-03-08T09:29:07.669Z,3.20
2023-03-08T09:31:39.384Z,3.60
2023-03-08T09:34:09.550Z,3.00
2023-03-08T09:36:39.884Z,3.30
2023-03-08T09:39:11.381Z,3.70
2023-03-08T09:41:52.701Z,4.30
2023-03-08T09:44:30.101Z,7.60
2023-03-08T09:47:13.872Z,5.80
2023-03-08T09:49:49.385Z,3.00
2023-03-08T09:52:40.568Z,3.30
2023-03-08T09:55:43.618Z,4.10
2023-03-08T09:58:17.262Z,3.60
2023-03-08T10:00:46.912Z,4.00
2023-03-08T10:03:49.669Z,2.90
2023-03-08T10:06:36.912Z,3.40
2023-03-08T10:09:14.774Z,3.90
2023-03-08T10:12:01.737Z,4.50
2023-03-08T10:14:37.107Z,1.70
2023-03-08T10:17:20.258Z,2.10
2023-03-08T10:19:57.932Z,2.00
2023-03-08T10:22:35.196Z,1.90
2023-03-08T10:25:25.351Z,2.20
2023-03-08T10:27:56.385Z,8.30
2023-03-08T10:30:34.367Z,2.20
2023-03-08T10:33:14.048Z,1.60
2023-03-08T10:36:09.630Z,1.90
2023-03-08T10:38:38.380Z,1.70
2023-03-08T10:41:18.209Z,1.60
2023-03-08T10:43:49.757Z,2.00
2023-03-08T10:46:31.193Z,2.20
2023-03-08T10:49:09.130Z,2.00
2023-03-08T10:51:38.651Z,2.40
2023-03-08T10:54:15.147Z,2.70
2023-03-08T10:56:53.869Z,1.90
2023-03-08T10:59:33.011Z,3.20
2023-03-08T11:02:13.426Z,2.50
2023-03-08T11:04:53.436Z,2.50
2023-03-08T11:07:26.597Z,2.50
2023-03-08T11:10:15.668Z,2.40
2023-03-08T11:12:47.290Z,2.60
2023-03-08T11:15:18.209Z,8.00
2023-03-08T11:18:25.702Z,2.60
2023-03-08T11:21:04.204Z,4.50
2023-03-08T11:23:49.653Z,4.10
2023-03-08T11:26:36.719Z,2.50
2023-03-08T11:29:22.706Z,4.60
2023-03-08T11:32:09.843Z,2.10
2023-03-08T11:35:15.142Z,1.50
2023-03-08T11:37:58.886Z,1.80
2023-03-08T11:40:36.347Z,1.80
2023-03-08T11:43:26.191Z,2.00
2023-03-08T11:46:18.340Z,1.80
2023-03-08T11:49:27.068Z,2.00
2023-03-08T11:52:00.943Z,3.00
2023-03-08T11:54:41.774Z,3.90
2023-03-08T11:57:14.177Z,3.60
2023-03-08T11:59:48.315Z,3.50
2023-03-08T12:02:24.586Z,2.70
2023-03-08T12:05:01.957Z,2.20
2023-03-08T12:07:41.447Z,6.30
2023-03-08T12:10:16.140Z,1.40
2023-03-08T12:12:50.177Z,2.10
2023-03-08T12:15:45.762Z,1.80
2023-03-08T12:18:38.417Z,4.80
2023-03-08T12:21:12.638Z,1.50
2023-03-08T12:24:18.957Z,2.10
2023-03-08T12:26:54.456Z,2.10
2023-03-08T12:29:33.841Z,3.30
2023-03-08T12:32:05.339Z,5.50
2023-03-08T12:34:37.771Z,2.00
2023-03-08T12:37:21.049Z,1.90
2023-03-08T12:40:09.429Z,2.30
2023-03-08T12:42:40.070Z,2.60
2023-03-08T12:45:23.605Z,2.40
2023-03-08T12:48:04.839Z,1.40
2023-03-08T12:50:41.334Z,1.40
2023-03-08T12:53:37.545Z,1.10
2023-03-08T12:56:12.001Z,1.30
2023-03-08T12:58:55.045Z,1.30
2023-03-08T13:01:37.556Z,1.40
2023-03-08T13:04:39.133Z,1.90
2023-03-08T13:07:20.327Z,2.40
2023-03-08T13:10:01.952Z,3.10
2023-03-08T13:12:41.451Z,4.00
2023-03-08T13:15:13.695Z,2.50
2023-03-08T13:18:02.100Z,2.90
2023-03-08T13:20:42.319Z,1.80
2023-03-08T13:23:39.596Z,1.70
2023-03-08T13:26:49.334Z,1.50
2023-03-08T13:29:21.415Z,1.90
2023-03-08T13:31:50.841Z,2.60
2023-03-08T13:34:39.412Z,1.90
2023-03-08T13:37:22.090Z,1.70
2023-03-08T13:39:57.993Z,1.90
2023-03-08T13:42:29.111Z,3.10
2023-03-08T13:45:18.325Z,2.10
2023-03-08T13:47:52.662Z,1.80
2023-03-08T13:50:32.171Z,2.00
2023-03-08T13:53:06.257Z,1.80
2023-03-08T13:55:51.767Z,2.20
2023-03-08T13:58:41.284Z,2.30
2023-03-08T14:01:12.414Z,2.10
2023-03-08T14:03:42.371Z,2.50
2023-03-08T14:06:20.160Z,2.00
2023-03-08T14:08:51.017Z,3.40
2023-03-08T14:11:25.976Z,2.10
2023-03-08T14:16:39.264Z,2.00
2023-03-08T14:19:28.135Z,2.20
2023-03-08T14:22:36.168Z,1.90
2023-03-08T14:25:26.916Z,1.60
2023-03-08T14:27:56.718Z,2.10
2023-03-08T14:30:29.787Z,2.00
2023-03-08T14:33:26.430Z,2.00
2023-03-08T14:36:02.563Z,1.80
2023-03-08T14:38:33.304Z,1.70
2023-03-08T14:41:08.584Z,4.40
2023-03-08T14:43:39.794Z,2.30
2023-03-08T14:46:19.687Z,1.80
2023-03-08T14:48:59.983Z,4.60
2023-03-08T14:51:39.755Z,2.60
2023-03-08T14:54:30.438Z,2.20
2023-03-08T14:57:02.594Z,1.80
2023-03-08T14:59:31.256Z,2.30
2023-03-08T15:01:59.751Z,2.40
2023-03-08T15:04:32.956Z,2.40
2023-03-08T15:07:01.423Z,11.70
2023-03-08T15:09:32.070Z,3.60
2023-03-08T15:12:01.746Z,2.70
2023-03-08T15:14:32.824Z,3.50
2023-03-08T15:17:03.662Z,4.70
2023-03-08T15:19:36.213Z,3.00
2023-03-08T15:22:08.484Z,2.80
2023-03-08T15:24:40.080Z,2.80
2023-03-08T15:27:16.390Z,3.20
2023-03-08T15:29:44.978Z,4.00
2023-03-08T15:32:13.611Z,6.40
2023-03-08T15:34:41.794Z,3.60
2023-03-08T15:37:15.101Z,4.80
2023-03-08T15:39:43.431Z,4.00
2023-03-08T15:42:12.505Z,3.60
2023-03-08T15:44:40.952Z,4.00
2023-03-08T15:47:10.633Z,3.10
2023-03-08T15:49:39.141Z,2.90
2023-03-08T15:52:08.770Z,4.20
2023-03-08T15:54:40.419Z,3.10
2023-03-08T15:57:08.781Z,3.20
2023-03-08T15:59:37.031Z,3.70
2023-03-08T16:02:05.351Z,4.50
2023-03-08T16:04:33.711Z,5.20
2023-03-08T16:07:01.694Z,5.40
2023-03-08T16:09:29.852Z,4.60
2023-03-08T16:11:58.441Z,4.10
2023-03-08T16:14:26.524Z,4.80
2023-03-08T16:16:56.421Z,5.40
2023-03-08T16:19:24.906Z,4.40
2023-03-08T16:21:53.957Z,4.70
2023-03-08T16:24:22.141Z,4.90
2023-03-08T16:26:52.469Z,5.40
2023-03-08T16:29:22.120Z,3.70
2023-03-08T16:31:52.892Z,4.30
2023-03-08T16:34:22.306Z,4.00
2023-03-08T16:36:51.698Z,5.40
2023-03-08T16:39:20.717Z,6.40
2023-03-08T16:41:49.404Z,4.50
2023-03-08T16:44:30.733Z,4.20
2023-03-08T16:47:02.121Z,6.30
2023-03-08T16:49:30.306Z,5.90
2023-03-08T16:52:00.841Z,5.20
2023-03-08T16:54:29.983Z,4.30
2023-03-08T16:57:01.113Z,5.30
2023-03-08T16:59:33.137Z,5.60
2023-03-08T17:02:01.313Z,6.00
2023-03-08T17:04:29.577Z,6.10
2023-03-08T17:06:58.533Z,5.60
2023-03-08T17:09:27.453Z,7.20
2023-03-08T17:11:55.902Z,6.50
2023-03-08T17:14:24.611Z,5.80
2023-03-08T17:16:53.527Z,5.40
2023-03-08T17:19:21.814Z,10.10
2023-03-08T17:21:52.198Z,7.10
2023-03-08T17:24:21.859Z,7.10
2023-03-08T17:26:52.881Z,5.50
2023-03-08T17:29:21.491Z,5.80
2023-03-08T17:31:50.381Z,6.80
2023-03-08T17:34:21.856Z,8.40
2023-03-08T17:36:51.695Z,6.40
2023-03-08T17:39:20.443Z,8.90
2023-03-08T17:41:48.801Z,7.80
2023-03-08T17:44:17.783Z,12.20
2023-03-08T17:46:47.140Z,6.70
2023-03-08T17:49:23.146Z,8.00
2023-03-08T17:51:52.658Z,6.50
2023-03-08T17:54:21.057Z,11.50
2023-03-08T17:56:50.539Z,9.90
2023-03-08T17:59:19.000Z,5.70
2023-03-08T18:01:47.410Z,6.60
2023-03-08T18:04:15.663Z,5.00
2023-03-08T18:06:43.848Z,7.60
2023-03-08T18:09:14.990Z,7.80
2023-03-08T18:11:43.778Z,8.10
2023-03-08T18:14:14.385Z,5.90
2023-03-08T18:16:45.001Z,7.90
2023-03-08T18:19:13.634Z,7.40
2023-03-08T18:21:41.930Z,12.50
2023-03-08T18:24:13.505Z,9.80
2023-03-08T18:26:42.709Z,7.80
2023-03-08T18:29:12.588Z,7.90
2023-03-08T18:31:41.459Z,7.60
2023-03-08T18:34:12.376Z,7.90
2023-03-08T18:36:41.244Z,6.90
2023-03-08T18:39:13.061Z,7.90
2023-03-08T18:41:41.374Z,8.30
2023-03-08T18:44:12.104Z,8.80
2023-03-08T18:46:40.743Z,5.80
2023-03-08T18:49:12.127Z,6.10
2023-03-08T18:51:42.483Z,5.60
2023-03-08T18:54:14.164Z,5.50
2023-03-08T18:56:45.800Z,5.30
2023-03-08T18:59:14.508Z,8.40
2023-03-08T19:01:43.041Z,6.10
2023-03-08T19:04:11.428Z,6.30
2023-03-08T19:06:39.516Z,5.70
2023-03-08T19:09:15.981Z,6.50
2023-03-08T19:11:45.709Z,7.40
2023-03-08T19:14:15.427Z,7.00
2023-03-08T19:16:43.582Z,12.80
2023-03-08T19:19:14.780Z,14.10
2023-03-08T19:21:45.308Z,17.80
2023-03-08T19:24:18.408Z,19.50
2023-03-08T19:26:50.263Z,21.00
2023-03-08T19:29:29.658Z,21.90
2023-03-08T19:32:01.524Z,22.60
2023-03-08T19:34:33.140Z,22.80
2023-03-08T19:37:02.104Z,22.30
2023-03-08T19:39:49.502Z,21.40
2023-03-08T19:42:24.761Z,20.00
2023-03-08T19:44:52.898Z,22.40
2023-03-08T19:47:21.018Z,18.80
2023-03-08T19:49:50.083Z,15.70
2023-03-08T19:52:19.947Z,18.60
2023-03-08T19:54:48.936Z,20.70
2023-03-08T19:57:17.609Z,21.20
2023-03-08T19:59:45.812Z,19.20
2023-03-08T20:02:14.804Z,16.10
2023-03-08T20:04:45.070Z,14.50
2023-03-08T20:07:13.278Z,14.40
2023-03-08T20:09:42.768Z,16.50
2023-03-08T20:12:10.828Z,16.70
2023-03-08T20:14:39.127Z,19.10
2023-03-08T20:17:08.225Z,18.80
2023-03-08T20:19:37.306Z,18.50
2023-03-08T20:22:05.580Z,19.40
2023-03-08T20:24:33.765Z,19.00
2023-03-08T20:27:01.799Z,10.70
2023-03-08T20:29:30.697Z,14.20
2023-03-08T20:31:58.997Z,15.30
2023-03-08T20:34:27.593Z,16.90
2023-03-08T20:36:56.236Z,21.10
2023-03-08T20:39:24.671Z,23.00
2023-03-08T20:41:53.997Z,20.40
2023-03-08T20:44:25.292Z,20.90
2023-03-08T20:46:53.721Z,19.80
2023-03-08T20:49:21.813Z,20.80
2023-03-08T20:51:49.941Z,21.20
2023-03-08T20:54:20.131Z,20.30
2023-03-08T20:56:50.480Z,21.00
2023-03-08T20:59:23.185Z,19.60
2023-03-08T21:01:51.450Z,19.60
2023-03-08T21:04:20.194Z,21.50
2023-03-08T21:06:49.420Z,19.80
2023-03-08T21:09:18.011Z,20.20
2023-03-08T21:11:46.073Z,19.40
2023-03-08T21:14:14.974Z,20.70
2023-03-08T21:16:43.445Z,19.90
2023-03-08T21:19:11.619Z,20.90
2023-03-08T21:21:42.751Z,19.60
2023-03-08T21:24:17.406Z,19.10
2023-03-08T21:26:46.388Z,20.20
2023-03-08T21:29:16.971Z,20.60
2023-03-08T21:31:51.794Z,20.20
2023-03-08T21:34:21.448Z,19.20
2023-03-08T21:36:50.097Z,16.80
2023-03-08T21:39:20.727Z,17.00
2023-03-08T21:41:49.150Z,17.90
2023-03-08T21:44:20.898Z,17.40
2023-03-08T21:46:50.184Z,15.70
2023-03-08T21:49:22.740Z,16.30
2023-03-08T21:51:52.143Z,16.00
2023-03-08T21:54:23.069Z,16.70
2023-03-08T21:56:51.051Z,17.60
2023-03-08T21:59:19.959Z,16.60
2023-03-08T22:01:50.334Z,16.30
2023-03-08T22:04:18.747Z,14.80
2023-03-08T22:06:49.737Z,14.90
2023-03-08T22:09:19.341Z,15.10
2023-03-08T22:11:47.865Z,14.70
2023-03-08T22:14:17.913Z,14.50
2023-03-08T22:16:46.002Z,13.80
2023-03-08T22:19:13.990Z,12.90
2023-03-08T22:21:42.443Z,14.30
2023-03-08T22:24:11.518Z,13.80
2023-03-08T22:26:39.702Z,11.00
2023-03-08T22:29:07.821Z,10.90
2023-03-08T22:31:35.928Z,10.80
2023-03-08T22:34:06.817Z,9.00
2023-03-08T22:36:37.318Z,9.50
2023-03-08T22:39:05.445Z,9.80
2023-03-08T22:41:33.479Z,9.80
2023-03-08T22:44:04.563Z,10.60
2023-03-08T22:46:33.788Z,9.90
2023-03-08T22:49:05.107Z,8.00
2023-03-08T22:51:36.023Z,9.70
2023-03-08T22:54:05.868Z,8.60
2023-03-08T22:56:35.078Z,9.10
2023-03-08T22:59:03.713Z,11.10
2023-03-08T23:01:33.147Z,10.60
2023-03-08T23:04:03.152Z,10.00
2023-03-08T23:06:32.322Z,10.20
2023-03-08T23:09:06.188Z,11.00
2023-03-08T23:11:35.889Z,12.40
2023-03-08T23:14:04.720Z,12.20
2023-03-08T23:16:34.921Z,13.00
2023-03-08T23:19:03.623Z,13.70
2023-03-08T23:21:33.626Z,13.60
2023-03-08T23:24:01.774Z,13.10
2023-03-08T23:26:32.809Z,12.50
2023-03-08T23:29:03.475Z,12.60
2023-03-08T23:31:35.137Z,12.00
2023-03-08T23:34:05.684Z,12.10
2023-03-08T23:36:34.792Z,12.60
2023-03-08T23:39:04.412Z,12.40
2023-03-08T23:41:33.195Z,12.70
2023-03-08T23:44:02.471Z,13.00
2023-03-08T23:46:30.975Z,14.00
2023-03-08T23:49:00.479Z,12.60
2023-03-08T23:51:31.085Z,12.90
2023-03-08T23:54:01.041Z,13.90
2023-03-08T23:56:38.152Z,13.40
